TimePDT,TemperatureF,Dew PointF,Humidity,Sea Level PressureIn,VisibilityMPH,Wind Direction,Wind SpeedMPH,Gust SpeedMPH,PrecipitationIn,Events,Conditions,WindDirDegrees,DateUTC
12:53 AM,75.9,53.1,45,29.91,10.0,South,8.1,-,N/A,,Clear,190,2013-09-04 07:53:00
1:53 AM,77.0,52.0,42,29.90,10.0,SW,8.1,-,N/A,,Clear,230,2013-09-04 08:53:00
2:53 AM,75.0,51.1,43,29.91,10.0,West,3.5,-,N/A,,Clear,270,2013-09-04 09:53:00
3:53 AM,73.9,52.0,46,29.90,10.0,Calm,Calm,-,N/A,,Clear,0,2013-09-04 10:53:00
4:53 AM,70.0,50.0,49,29.91,10.0,SE,5.8,-,N/A,,Clear,130,2013-09-04 11:53:00
5:53 AM,69.1,51.1,53,29.93,10.0,East,3.5,-,N/A,,Clear,100,2013-09-04 12:53:00
6:53 AM,69.1,52.0,54,29.95,10.0,Variable,3.5,-,N/A,,Clear,0,2013-09-04 13:53:00
7:53 AM,73.9,52.0,46,29.96,10.0,Calm,Calm,-,N/A,,Clear,0,2013-09-04 14:53:00
8:53 AM,81.0,53.1,38,29.95,10.0,ENE,5.8,-,N/A,,Clear,70,2013-09-04 15:53:00
9:53 AM,84.9,52.0,32,29.95,10.0,ENE,5.8,-,N/A,,Clear,60,2013-09-04 16:53:00
10:53 AM,89.1,52.0,28,29.95,10.0,ESE,9.2,-,N/A,,Clear,110,2013-09-04 17:53:00
11:53 AM,91.9,51.1,25,29.92,10.0,Calm,Calm,-,N/A,,Clear,0,2013-09-04 18:53:00
12:53 PM,95.0,50.0,22,29.90,10.0,Variable,3.5,-,N/A,,Clear,0,2013-09-04 19:53:00
1:53 PM,97.0,50.0,20,29.87,10.0,ESE,8.1,-,N/A,,Clear,110,2013-09-04 20:53:00
2:53 PM,98.1,48.9,19,29.85,10.0,SSE,5.8,-,N/A,,Clear,150,2013-09-04 21:53:00
3:53 PM,98.1,46.9,18,29.83,10.0,SW,11.5,24.2,N/A,,Clear,230,2013-09-04 22:53:00
4:53 PM,98.1,46.9,18,29.86,10.0,West,11.5,18.4,N/A,,Scattered Clouds,260,2013-09-04 23:53:00
5:43 PM,93.2,55.4,28,29.96,10.0,SE,13.8,-,N/A,,Clear,130,2013-09-05 00:43:00
5:53 PM,93.0,55.0,28,29.87,10.0,SE,16.1,-,N/A,,Clear,130,2013-09-05 00:53:00
6:53 PM,90.0,55.9,31,29.88,10.0,SSE,6.9,-,N/A,,Clear,160,2013-09-05 01:53:00
7:53 PM,89.1,50.0,26,29.88,10.0,SSW,5.8,-,N/A,,Clear,200,2013-09-05 02:53:00
8:53 PM,84.9,48.9,29,29.90,10.0,West,8.1,-,N/A,,Clear,270,2013-09-05 03:53:00
9:53 PM,82.9,48.9,31,29.91,10.0,WNW,6.9,-,N/A,,Clear,300,2013-09-05 04:53:00
10:53 PM,82.0,48.0,30,29.90,10.0,WNW,8.1,-,N/A,,Clear,300,2013-09-05 05:53:00
11:53 PM,81.0,48.0,31,29.90,10.0,WNW,6.9,-,N/A,,Clear,290,2013-09-05 06:53:00